Time;durP1;ratioP1;P1;durP2;ratioP2;P2;SDS_P1;SDS_P2;PMS_P1;PMS_P2;Temp;Humidity;BMP_temperature;BMP_pressure;BME280_temperature;BME280_humidity;BME280_pressure;Samples;Min_cycle;Max_cycle;Signal;HPM_P1;HPM_P2
2021/04/19 00:00:13;;;;;;;3.97;3.42;;;;;;;11.58;38.50;94297.47;5008366;28;20030;-81
2021/04/19 00:02:39;;;;;;;4.22;3.63;;;;;;;11.60;38.75;94298.06;5029010;28;20061;-80
2021/04/19 00:05:06;;;;;;;3.92;3.50;;;;;;;11.60;38.88;94293.66;4993194;28;20022;-81
2021/04/19 00:07:33;;;;;;;4.30;3.50;;;;;;;11.62;38.72;94290.84;4999121;28;20040;-81
2021/04/19 00:09:58;;;;;;;3.92;3.53;;;;;;;11.64;38.74;94294.81;4980709;28;20045;-81
2021/04/19 00:12:27;;;;;;;4.10;3.63;;;;;;;11.63;39.02;94279.41;5012697;28;20022;-81
2021/04/19 00:15:04;;;;;;;4.22;3.65;;;;;;;11.69;38.14;94287.19;4989892;28;20117;-81
2021/04/19 00:17:30;;;;;;;4.68;3.80;;;;;;;11.68;38.63;94282.97;5010043;28;20026;-81
2021/04/19 00:19:55;;;;;;;4.90;3.97;;;;;;;11.70;38.95;94285.38;5033645;28;20065;-81
2021/04/19 00:22:26;;;;;;;4.57;3.58;;;;;;;11.73;38.48;94279.78;5021895;28;20036;-80
2021/04/19 00:24:55;;;;;;;4.30;3.63;;;;;;;11.73;38.55;94283.16;5014775;28;20116;-80
2021/04/19 00:27:21;;;;;;;4.82;4.00;;;;;;;11.72;38.98;94278.94;5013503;28;20037;-80
2021/04/19 00:29:48;;;;;;;4.28;3.38;;;;;;;11.78;39.13;94281.75;5015203;28;20026;-81
2021/04/19 00:32:15;;;;;;;4.65;3.63;;;;;;;11.78;39.06;94273.94;5009458;28;20120;-81
2021/04/19 00:34:41;;;;;;;4.30;3.90;;;;;;;11.82;38.83;94282.91;5015132;28;20053;-80
2021/04/19 00:37:06;;;;;;;4.32;3.78;;;;;;;11.81;38.98;94282.13;5048483;28;20030;-80
2021/04/19 00:39:32;;;;;;;5.22;3.90;;;;;;;11.84;39.39;94280.91;5031100;28;20029;-81
2021/04/19 00:42:00;;;;;;;4.13;3.72;;;;;;;11.86;38.74;94278.88;4998857;28;20026;-80
2021/04/19 00:44:28;;;;;;;5.43;4.25;;;;;;;11.90;38.83;94274.91;5013600;28;20030;-81
2021/04/19 00:46:56;;;;;;;4.68;4.10;;;;;;;11.93;39.17;94282.28;5026921;28;20036;-80
2021/04/19 00:49:23;;;;;;;5.30;4.43;;;;;;;11.89;39.10;94268.88;5045946;28;20041;-80
2021/04/19 00:51:51;;;;;;;5.05;4.38;;;;;;;11.90;38.83;94262.69;5029126;28;20048;-80
2021/04/19 00:54:17;;;;;;;4.95;3.97;;;;;;;11.95;39.18;94267.25;5014013;28;20030;-81
2021/04/19 00:56:46;;;;;;;4.93;3.97;;;;;;;11.98;38.93;94269.44;5014718;28;20041;-81
2021/04/19 00:59:12;;;;;;;5.20;4.07;;;;;;;11.99;38.81;94263.22;4999016;28;20108;-81
2021/04/19 01:01:41;;;;;;;4.63;4.03;;;;;;;12.01;38.92;94266.41;4996149;28;20092;-81
2021/04/19 01:04:07;;;;;;;5.72;4.50;;;;;;;12.01;39.27;94261.19;5018484;28;20090;-81
2021/04/19 01:06:34;;;;;;;6.78;4.93;;;;;;;12.03;39.27;94259.22;5013714;28;20105;-81
2021/04/19 01:09:02;;;;;;;5.10;4.53;;;;;;;12.02;39.45;94252.38;5017855;28;20080;-81
2021/04/19 01:11:27;;;;;;;5.40;4.45;;;;;;;12.04;39.15;94257.38;4991754;28;20026;-81
2021/04/19 01:13:53;;;;;;;5.43;4.20;;;;;;;12.06;39.04;94263.97;5014885;28;20118;-81
2021/04/19 01:16:18;;;;;;;4.57;3.90;;;;;;;12.08;39.07;94261.16;4997304;28;20029;-81
2021/04/19 01:18:46;;;;;;;5.00;3.97;;;;;;;12.10;39.15;94262.53;4997993;28;20033;-81
2021/04/19 01:21:13;;;;;;;4.38;3.88;;;;;;;12.13;39.23;94261.34;5008493;28;20081;-81
2021/04/19 01:23:38;;;;;;;5.22;3.95;;;;;;;12.11;39.42;94258.94;5046928;28;20030;-81
2021/04/19 01:26:05;;;;;;;4.78;4.10;;;;;;;12.19;39.28;94257.91;5014399;28;20049;-81
2021/04/19 01:28:31;;;;;;;4.65;4.00;;;;;;;12.18;39.42;94261.50;5014265;28;20033;-80
2021/04/19 01:30:57;;;;;;;5.28;4.45;;;;;;;12.22;39.25;94261.88;5027931;28;20105;-81
2021/04/19 01:33:32;;;;;;;5.25;4.35;;;;;;;12.28;39.04;94263.63;4994141;28;20056;-81
2021/04/19 01:35:57;;;;;;;5.20;4.45;;;;;;;12.27;39.17;94264.66;5003834;28;20026;-81
2021/04/19 01:38:23;;;;;;;5.40;4.30;;;;;;;12.30;39.48;94257.22;5014161;28;20033;-80
2021/04/19 01:40:49;;;;;;;5.00;4.25;;;;;;;12.29;39.31;94255.59;5012062;28;20030;-81
2021/04/19 01:43:17;;;;;;;4.20;3.78;;;;;;;12.30;39.37;94254.59;5030227;28;20070;-81
2021/04/19 01:45:43;;;;;;;5.80;4.38;;;;;;;12.29;39.42;94266.03;5013191;28;20037;-81
2021/04/19 01:48:09;;;;;;;4.63;4.13;;;;;;;12.26;39.40;94258.66;5011556;28;20278;-81
2021/04/19 01:50:35;;;;;;;5.10;4.00;;;;;;;12.26;39.65;94265.66;5011941;28;20049;-81
2021/04/19 01:53:02;;;;;;;5.07;4.18;;;;;;;12.27;39.21;94262.84;4995404;28;20026;-81
2021/04/19 01:55:31;;;;;;;4.57;4.07;;;;;;;12.26;39.28;94263.03;4994536;28;20107;-81
2021/04/19 01:58:04;;;;;;;4.97;3.97;;;;;;;12.31;39.13;94264.00;5011019;28;20049;-81
2021/04/19 02:00:34;;;;;;;5.45;4.30;;;;;;;12.27;39.31;94252.41;4983704;28;20022;-81
2021/04/19 02:03:38;;;;;;;5.22;4.30;;;;;;;12.34;38.92;94255.00;4996399;28;20040;-81
2021/04/19 02:06:11;;;;;;;5.63;4.80;;;;;;;12.35;39.18;94253.97;5019978;28;20120;-81
2021/04/19 02:08:39;;;;;;;6.05;5.07;;;;;;;12.37;39.40;94257.16;5013225;28;20036;-81
2021/04/19 02:11:18;;;;;;;6.20;5.15;;;;;;;12.38;39.13;94258.75;5029402;28;20124;-81
2021/04/19 02:14:22;;;;;;;5.32;4.70;;;;;;;12.33;38.46;94256.78;5030118;28;20021;-81
2021/04/19 02:17:28;;;;;;;5.88;4.90;;;;;;;12.28;38.94;94254.03;4997925;28;20045;-81
2021/04/19 02:19:59;;;;;;;5.53;4.68;;;;;;;12.24;39.46;94252.03;5025807;28;20044;-81
2021/04/19 02:22:28;;;;;;;5.05;4.10;;;;;;;12.19;39.76;94250.06;5028981;28;20036;-81
2021/04/19 02:25:04;;;;;;;5.60;4.32;;;;;;;12.23;39.71;94259.06;5016647;28;20052;-81
2021/04/19 02:27:33;;;;;;;4.97;4.22;;;;;;;12.20;39.85;94251.66;5001804;28;20045;-81
2021/04/19 02:30:00;;;;;;;5.65;4.07;;;;;;;12.21;40.09;94250.66;5015645;28;20030;-81
2021/04/19 02:32:33;;;;;;;5.03;4.15;;;;;;;12.22;39.46;94252.28;5014823;28;20037;-81
2021/04/19 02:35:02;;;;;;;5.55;4.68;;;;;;;12.19;39.82;94249.28;4994962;28;20053;-81
2021/04/19 02:37:31;;;;;;;5.78;4.82;;;;;;;12.19;40.02;94244.06;4983031;28;20038;-81
2021/04/19 02:39:57;;;;;;;5.57;4.70;;;;;;;12.22;40.30;94247.06;4983910;28;20033;-81
2021/04/19 02:42:22;;;;;;;5.72;4.70;;;;;;;12.24;40.18;94249.44;4989341;28;20194;-81
2021/04/19 02:44:48;;;;;;;5.40;4.50;;;;;;;12.27;40.02;94257.63;5001969;28;20029;-81
2021/04/19 02:47:15;;;;;;;4.57;4.10;;;;;;;12.27;40.01;94247.19;5015562;28;20055;-81
2021/04/19 02:49:42;;;;;;;5.93;4.70;;;;;;;12.30;39.93;94251.22;5012206;28;20022;-81
2021/04/19 02:52:08;;;;;;;5.43;4.68;;;;;;;12.31;39.87;94252.78;5008305;28;20029;-81
2021/04/19 02:54:37;;;;;;;5.00;4.22;;;;;;;12.22;39.64;94241.03;4993934;28;20350;-81
2021/04/19 02:57:30;;;;;;;5.38;4.60;;;;;;;12.31;39.70;94252.78;5013465;28;20100;-81
2021/04/19 02:59:57;;;;;;;4.95;4.20;;;;;;;12.26;39.69;94242.19;5006418;28;20037;-81
2021/04/19 03:02:27;;;;;;;5.80;4.55;;;;;;;12.26;39.38;94242.19;5028366;28;20022;-81
2021/04/19 03:04:55;;;;;;;5.53;4.50;;;;;;;12.23;39.51;94250.44;4992754;28;20125;-81
2021/04/19 03:07:26;;;;;;;4.65;4.18;;;;;;;12.21;39.41;94242.03;5027875;28;20022;-81
2021/04/19 03:09:53;;;;;;;5.45;4.55;;;;;;;12.15;39.04;94242.88;5007324;28;20021;-81
2021/04/19 03:12:22;;;;;;;5.35;4.22;;;;;;;12.13;38.91;94246.50;4996107;28;20036;-81
2021/04/19 03:15:04;;;;;;;5.38;4.47;;;;;;;12.08;38.57;94243.72;4988660;28;20157;-81
2021/04/19 03:17:31;;;;;;;5.80;4.55;;;;;;;12.02;39.21;94241.97;4995055;28;20026;-82
2021/04/19 03:20:15;;;;;;;5.25;4.63;;;;;;;12.04;38.75;94244.34;5028731;28;20112;-81
2021/04/19 03:22:44;;;;;;;5.85;4.68;;;;;;;11.96;39.04;94245.41;5041931;28;20022;-81
2021/04/19 03:25:11;;;;;;;5.47;4.30;;;;;;;11.88;39.18;94240.41;5027922;28;20030;-81
2021/04/19 03:27:36;;;;;;;5.25;4.75;;;;;;;11.84;39.16;94236.63;4990254;28;20022;-81
2021/04/19 03:30:03;;;;;;;7.07;5.18;;;;;;;11.77;38.78;94244.47;4985387;28;20122;-81
2021/04/19 03:32:37;;;;;;;5.72;4.88;;;;;;;11.73;38.89;94244.09;5004122;28;20057;-81
2021/04/19 03:35:08;;;;;;;6.57;4.95;;;;;;;11.64;38.90;94242.72;5007640;28;20033;-81
2021/04/19 03:37:34;;;;;;;8.82;5.20;;;;;;;11.57;39.11;94247.16;4994491;28;20038;-81
2021/04/19 03:40:22;;;;;;;6.05;4.85;;;;;;;11.54;39.27;94247.59;4993073;28;20171;-81
2021/04/19 03:42:50;;;;;;;6.00;5.07;;;;;;;11.45;39.16;94249.63;4992183;28;20026;-81
2021/04/19 03:45:16;;;;;;;6.03;5.18;;;;;;;11.40;39.02;94246.03;5040622;28;20065;-80
2021/04/19 03:47:47;;;;;;;7.43;5.57;;;;;;;11.35;39.11;94252.66;5012311;28;20128;-81
2021/04/19 03:50:13;;;;;;;6.60;5.28;;;;;;;11.28;39.33;94254.50;4994775;28;20034;-81
2021/04/19 03:52:42;;;;;;;6.47;4.95;;;;;;;11.22;39.29;94252.72;5011313;28;20156;-81
2021/04/19 03:55:13;;;;;;;7.22;5.35;;;;;;;11.15;39.16;94250.13;5032078;28;20026;-81
2021/04/19 03:57:38;;;;;;;;;;;;;;;11.14;38.06;94252.94;5002823;28;20014;-80
2021/04/19 04:00:10;;;;;;;5.75;4.57;;;;;;;11.10;38.91;94254.34;5040598;28;19948;-80
2021/04/19 04:02:39;;;;;;;6.82;5.38;;;;;;;11.00;39.01;94246.94;5011456;28;20022;-80
2021/04/19 04:05:06;;;;;;;6.25;5.22;;;;;;;10.87;39.32;94247.81;5010572;28;20029;-81
2021/04/19 04:07:34;;;;;;;6.90;5.43;;;;;;;10.87;39.38;94258.22;4995190;28;20026;-81
2021/04/19 04:09:59;;;;;;;6.28;5.10;;;;;;;10.78;39.16;94254.22;5000610;28;20118;-81
2021/04/19 04:12:25;;;;;;;6.65;5.53;;;;;;;10.71;39.58;94254.22;5001437;28;20030;-81
2021/04/19 04:14:54;;;;;;;6.10;5.05;;;;;;;10.69;39.20;94255.41;5007674;28;20061;-81
2021/04/19 04:17:19;;;;;;;6.82;5.10;;;;;;;10.59;39.21;94255.81;4989250;28;20022;-81
2021/04/19 04:19:47;;;;;;;7.18;5.75;;;;;;;10.57;39.68;94263.81;4995211;28;20034;-80
2021/04/19 04:22:16;;;;;;;6.72;5.28;;;;;;;10.53;39.73;94254.84;4995148;28;20406;-80
2021/04/19 04:24:43;;;;;;;6.22;4.97;;;;;;;10.51;39.77;94259.44;5010938;28;20033;-81
2021/04/19 04:27:09;;;;;;;6.97;5.13;;;;;;;10.47;39.83;94257.41;4990782;28;20038;-81
2021/04/19 04:29:35;;;;;;;7.53;5.35;;;;;;;10.35;40.12;94249.41;5022617;28;20089;-80
2021/04/19 04:32:00;;;;;;;6.25;5.03;;;;;;;10.36;39.75;94270.03;5011621;28;20018;-80
2021/04/19 04:34:27;;;;;;;6.25;5.32;;;;;;;10.31;39.90;94267.22;4995188;28;20029;-81
2021/04/19 04:36:53;;;;;;;7.18;5.03;;;;;;;10.30;40.22;94275.16;5010932;28;20040;-81
2021/04/19 04:39:18;;;;;;;5.80;4.97;;;;;;;10.27;40.10;94273.00;5010664;28;20338;-81
2021/04/19 04:41:43;;;;;;;5.78;5.15;;;;;;;10.25;40.03;94272.38;5014315;28;20025;-81
2021/04/19 04:44:13;;;;;;;7.10;5.10;;;;;;;10.21;39.84;94271.97;4978510;28;20037;-81
2021/04/19 04:47:16;;;;;;;7.05;5.55;;;;;;;10.23;39.90;94271.78;4978906;28;20045;-80
2021/04/19 04:50:12;;;;;;;7.38;5.93;;;;;;;10.18;39.48;94273.19;4998784;28;20049;-81
2021/04/19 04:52:50;;;;;;;6.10;5.10;;;;;;;10.15;39.84;94270.19;4956194;28;20037;-81
2021/04/19 04:55:19;;;;;;;6.38;5.25;;;;;;;10.11;40.33;94269.78;4941353;28;20035;-80
2021/04/19 04:57:44;;;;;;;6.57;5.35;;;;;;;10.07;40.02;94265.16;4942692;28;20103;-80
2021/04/19 05:00:15;;;;;;;10.68;5.75;;;;;;;10.02;40.23;94267.56;4942555;28;20126;-81
2021/04/19 05:02:49;;;;;;;7.65;5.70;;;;;;;10.01;40.44;94271.94;4958361;28;20039;-81
2021/04/19 05:05:23;;;;;;;7.88;5.93;;;;;;;10.00;40.08;94270.34;4928453;28;20033;-81
2021/04/19 05:07:49;;;;;;;10.10;5.82;;;;;;;9.96;40.37;94277.72;4949855;29;20039;-81
2021/04/19 05:10:15;;;;;;;8.30;6.13;;;;;;;9.94;40.27;94274.53;4954075;28;20093;-80
2021/04/19 05:12:45;;;;;;;8.45;6.15;;;;;;;9.94;40.62;94273.75;4942568;29;20074;-80
2021/04/19 05:15:46;;;;;;;8.23;6.40;;;;;;;9.94;39.77;94273.75;4971570;28;20062;-80
2021/04/19 05:18:18;;;;;;;7.90;5.60;;;;;;;9.88;40.44;94270.13;4940338;29;20076;-80
2021/04/19 05:20:46;;;;;;;8.88;6.30;;;;;;;9.87;40.68;94271.13;4944392;29;20248;-80
2021/04/19 05:23:16;;;;;;;8.63;6.25;;;;;;;9.85;40.74;94272.31;4923405;29;20066;-80
2021/04/19 05:25:45;;;;;;;7.38;6.15;;;;;;;9.86;40.92;94276.50;4924673;29;20063;-80
2021/04/19 05:28:11;;;;;;;8.20;6.10;;;;;;;9.88;40.82;94271.91;4917138;29;20035;-80
2021/04/19 05:30:37;;;;;;;8.30;6.22;;;;;;;9.86;40.75;94277.31;4914447;29;20068;-80
2021/04/19 05:33:05;;;;;;;7.60;6.13;;;;;;;9.88;40.92;94269.31;4902952;29;20035;-81
2021/04/19 05:35:31;;;;;;;8.73;6.45;;;;;;;9.87;41.09;94278.13;4930710;28;20090;-80
2021/04/19 05:37:57;;;;;;;9.27;6.72;;;;;;;9.89;41.02;94276.13;4932310;29;20167;-80
2021/04/19 05:40:26;;;;;;;9.98;7.75;;;;;;;9.94;41.11;94277.13;4909701;29;20031;-80
2021/04/19 05:42:52;;;;;;;10.00;7.05;;;;;;;9.88;41.64;94275.31;4900136;29;20039;-80
2021/04/19 05:45:27;;;;;;;9.13;6.93;;;;;;;9.93;40.88;94277.31;4885640;29;20090;-80
2021/04/19 05:47:55;;;;;;;10.68;7.82;;;;;;;9.78;41.36;94280.06;4933057;29;20095;-77
2021/04/19 05:50:23;;;;;;;10.13;7.40;;;;;;;9.57;42.05;94283.59;4933538;29;20024;-77
2021/04/19 05:52:52;;;;;;;8.52;6.70;;;;;;;9.42;42.60;94285.53;4924092;29;20068;-77
2021/04/19 05:55:22;;;;;;;11.32;7.65;;;;;;;9.27;42.88;94290.84;4955732;28;20072;-77
2021/04/19 05:58:27;;;;;;;9.52;7.07;;;;;;;9.14;42.48;94278.63;4990516;28;20080;-78
2021/04/19 06:01:04;;;;;;;11.52;8.50;;;;;;;9.00;43.38;94281.16;5022559;28;20053;-77
2021/04/19 06:03:37;;;;;;;17.27;10.90;;;;;;;8.92;43.84;94290.84;4995900;28;20168;-77
2021/04/19 06:06:15;;;;;;;14.10;10.50;;;;;;;8.82;43.69;94291.19;4994452;28;20021;-77
2021/04/19 06:09:05;;;;;;;15.90;10.50;;;;;;;8.76;44.15;94286.78;5011712;28;20029;-77
2021/04/19 06:11:43;;;;;;;13.80;9.27;;;;;;;8.69;44.55;94289.31;5038280;28;20053;-77
2021/04/19 06:14:09;;;;;;;9.77;7.70;;;;;;;8.63;45.12;94287.47;5005079;28;20033;-77
2021/04/19 06:16:39;;;;;;;12.00;8.95;;;;;;;8.63;45.12;94291.88;5003934;28;20026;-76
2021/04/19 06:19:25;;;;;;;12.38;9.23;;;;;;;8.62;44.72;94285.84;4994722;28;20112;-77
2021/04/19 06:21:52;;;;;;;11.75;8.65;;;;;;;8.62;46.20;94288.44;5023709;28;20121;-77
2021/04/19 06:24:18;;;;;;;11.13;8.27;;;;;;;8.63;46.49;94281.50;5025884;28;20025;-76
2021/04/19 06:26:44;;;;;;;9.60;7.35;;;;;;;8.65;46.75;94287.28;5011017;28;20099;-76
2021/04/19 06:29:11;;;;;;;9.95;7.35;;;;;;;8.70;46.66;94279.72;5011873;28;20038;-77
2021/04/19 06:31:43;;;;;;;12.07;8.70;;;;;;;8.74;46.60;94288.75;5042554;28;20018;-76
2021/04/19 06:34:10;;;;;;;12.82;9.25;;;;;;;8.81;47.46;94294.78;5010063;28;20044;-76
2021/04/19 06:36:40;;;;;;;10.10;7.85;;;;;;;8.86;46.79;94295.00;5002858;28;20048;-76
2021/04/19 06:39:07;;;;;;;10.30;7.10;;;;;;;8.90;46.88;94290.25;4994872;28;20065;-76
2021/04/19 06:41:34;;;;;;;11.13;7.15;;;;;;;8.97;46.71;94299.69;5019342;28;20027;-76
2021/04/19 06:44:03;;;;;;;9.82;6.93;;;;;;;9.04;46.91;94293.72;5011365;28;20052;-76
2021/04/19 06:46:33;;;;;;;10.38;7.78;;;;;;;9.15;46.48;94290.59;4995538;28;20030;-76
2021/04/19 06:48:59;;;;;;;11.93;8.70;;;;;;;9.23;47.06;94297.41;4980387;28;20054;-76
2021/04/19 06:51:25;;;;;;;10.57;7.85;;;;;;;9.34;47.31;94287.28;5002568;28;20036;-76
2021/04/19 06:53:55;;;;;;;12.52;8.73;;;;;;;9.46;47.08;94291.94;4993248;28;20030;-76
2021/04/19 06:56:26;;;;;;;11.35;7.85;;;;;;;9.62;46.36;94290.81;4994910;28;20022;-76
2021/04/19 06:58:54;;;;;;;12.38;8.45;;;;;;;9.73;46.85;94291.06;5008199;28;20058;-76
2021/04/19 07:01:20;;;;;;;12.10;8.65;;;;;;;9.89;46.86;94296.91;5011088;28;20033;-76
2021/04/19 07:03:48;;;;;;;12.82;9.07;;;;;;;10.03;46.50;94282.94;4994513;28;20049;-76
2021/04/19 07:06:14;;;;;;;12.95;8.82;;;;;;;10.17;46.19;94289.75;4992243;28;20083;-76
2021/04/19 07:08:44;;;;;;;10.65;8.13;;;;;;;10.32;45.97;94279.22;4992979;28;20117;-76
2021/04/19 07:11:10;;;;;;;10.30;7.57;;;;;;;10.46;46.12;94287.81;5018691;28;20033;-76
2021/04/19 07:13:36;;;;;;;14.63;10.88;;;;;;;10.63;46.58;94282.25;4977265;28;20029;-76
2021/04/19 07:16:02;;;;;;;11.95;8.70;;;;;;;10.78;46.33;94287.22;5008750;28;20036;-76
2021/04/19 07:18:27;;;;;;;12.85;8.40;;;;;;;10.92;46.64;94288.81;4996719;28;20046;-76
2021/04/19 07:20:55;;;;;;;12.43;9.23;;;;;;;11.05;46.53;94285.38;5039810;28;20017;-77
2021/04/19 07:23:24;;;;;;;10.40;8.18;;;;;;;11.19;45.69;94286.94;5023326;28;20025;-76
2021/04/19 07:25:49;;;;;;;13.07;8.35;;;;;;;11.33;45.15;94288.53;5008690;28;20034;-76
2021/04/19 07:28:23;;;;;;;12.65;9.07;;;;;;;11.49;44.66;94283.88;5005758;28;20022;-76
2021/04/19 07:30:58;;;;;;;10.57;7.78;;;;;;;11.61;44.72;94278.81;5047115;28;20033;-75
2021/04/19 07:33:27;;;;;;;11.45;8.18;;;;;;;11.73;44.46;94279.78;4980165;28;20055;-76
2021/04/19 07:35:53;;;;;;;13.50;8.98;;;;;;;11.83;44.31;94287.94;4992511;28;20064;-76
2021/04/19 07:38:32;;;;;;;12.32;8.75;;;;;;;11.96;43.48;94276.69;4992585;28;20052;-76
2021/04/19 07:41:00;;;;;;;15.85;12.32;;;;;;;12.06;44.49;94277.00;4992561;28;20033;-77
2021/04/19 07:43:28;;;;;;;13.70;9.85;;;;;;;12.14;43.92;94268.13;5025206;28;20030;-76
2021/04/19 07:46:07;;;;;;;10.75;7.68;;;;;;;12.24;43.32;94273.72;4979982;28;20037;-76
2021/04/19 07:48:41;;;;;;;13.73;10.73;;;;;;;12.28;43.72;94261.03;5022810;28;20036;-77
2021/04/19 07:51:35;;;;;;;11.65;8.68;;;;;;;12.39;43.46;94251.72;4992411;28;20084;-77
2021/04/19 07:54:10;;;;;;;11.85;8.88;;;;;;;12.45;43.40;94253.47;5004433;28;20018;-77
2021/04/19 07:56:39;;;;;;;16.15;12.20;;;;;;;12.45;43.97;94249.09;5019845;28;20022;-76
2021/04/19 07:59:29;;;;;;;13.95;10.57;;;;;;;12.52;43.94;94249.03;4993813;28;20030;-76
2021/04/19 08:02:06;;;;;;;13.55;9.40;;;;;;;12.56;43.71;94238.97;5025174;28;20096;-76
2021/04/19 08:04:33;;;;;;;15.93;10.77;;;;;;;12.63;43.13;94235.28;5005269;28;20029;-76
2021/04/19 08:06:59;;;;;;;14.18;10.13;;;;;;;12.64;42.84;94236.06;5002782;28;20036;-76
2021/04/19 08:09:31;;;;;;;13.95;10.20;;;;;;;12.72;42.40;94235.81;5006199;28;20034;-76
2021/04/19 08:12:08;;;;;;;13.55;10.48;;;;;;;12.80;42.24;94232.13;4970022;28;20026;-76
2021/04/19 08:14:40;;;;;;;12.00;9.00;;;;;;;12.85;42.04;94238.31;5008181;28;20395;-76
2021/04/19 08:17:11;;;;;;;13.43;10.25;;;;;;;12.92;41.19;94233.00;4992334;28;20074;-76
2021/04/19 08:19:39;;;;;;;14.63;10.60;;;;;;;12.97;41.18;94229.78;5008620;28;20081;-75
2021/04/19 08:22:15;;;;;;;9.55;7.70;;;;;;;13.01;40.91;94229.09;5024444;28;20030;-76
2021/04/19 08:24:42;;;;;;;9.98;8.18;;;;;;;13.06;39.94;94226.66;5025733;28;20060;-75
2021/04/19 08:27:08;;;;;;;9.40;6.20;;;;;;;13.11;40.31;94234.63;5008342;28;20033;-75
2021/04/19 08:29:41;;;;;;;7.95;6.53;;;;;;;13.17;40.24;94219.91;5044808;28;20025;-75
2021/04/19 08:32:12;;;;;;;7.70;6.38;;;;;;;13.25;40.66;94231.84;4994549;28;20034;-75
2021/04/19 08:34:37;;;;;;;9.30;7.03;;;;;;;13.30;39.87;94227.59;5027466;28;20018;-77
2021/04/19 08:37:03;;;;;;;9.07;6.47;;;;;;;13.40;40.42;94221.91;5009366;28;20018;-76
2021/04/19 08:39:30;;;;;;;11.75;9.07;;;;;;;13.55;40.75;94226.72;5022509;28;20026;-75
2021/04/19 08:41:56;;;;;;;12.27;8.38;;;;;;;13.63;41.19;94226.44;5029677;28;20036;-75
2021/04/19 08:44:25;;;;;;;17.52;11.38;;;;;;;13.75;41.79;94225.69;5027077;28;20022;-76
2021/04/19 08:46:51;;;;;;;14.18;10.70;;;;;;;13.83;41.71;94227.97;4995264;28;20062;-75
2021/04/19 08:49:19;;;;;;;13.35;10.77;;;;;;;13.86;41.08;94233.56;4974761;28;20026;-75
2021/04/19 08:51:47;;;;;;;14.85;11.38;;;;;;;13.91;41.69;94234.72;5010670;28;20029;-77
2021/04/19 08:54:15;;;;;;;14.35;10.73;;;;;;;13.89;41.57;94227.09;5012045;28;20037;-77
2021/04/19 08:56:41;;;;;;;9.48;7.53;;;;;;;13.88;41.89;94235.97;4980772;28;20072;-76
2021/04/19 08:59:09;;;;;;;11.43;8.45;;;;;;;13.89;41.06;94234.94;5010552;28;20025;-77
2021/04/19 09:01:35;;;;;;;11.38;9.35;;;;;;;13.89;41.45;94248.00;4997132;28;20025;-77
2021/04/19 09:04:04;;;;;;;15.52;10.05;;;;;;;13.93;40.40;94243.13;4997068;28;20109;-76
2021/04/19 09:06:51;;;;;;;10.98;8.73;;;;;;;13.97;40.79;94244.28;4990033;28;20029;-77
2021/04/19 09:09:32;;;;;;;11.73;9.57;;;;;;;13.99;40.99;94248.28;5009058;28;20034;-76
2021/04/19 09:12:22;;;;;;;12.38;9.57;;;;;;;14.01;41.06;94246.25;5001574;28;20037;-76
2021/04/19 09:14:47;;;;;;;9.85;8.07;;;;;;;14.04;41.30;94234.53;5022681;28;20042;-77
2021/04/19 09:17:25;;;;;;;11.10;8.45;;;;;;;14.11;41.30;94235.25;5017201;28;20042;-77
2021/04/19 09:19:55;;;;;;;15.00;8.73;;;;;;;14.23;40.99;94238.66;4995724;28;20038;-77
2021/04/19 09:22:23;;;;;;;13.18;10.50;;;;;;;14.31;39.93;94234.94;4997003;28;20048;-76
2021/04/19 09:25:09;;;;;;;10.73;8.23;;;;;;;14.44;40.00;94239.97;4998020;28;20083;-77
2021/04/19 09:27:57;;;;;;;13.43;10.32;;;;;;;14.47;38.93;94244.75;5028289;28;20030;-77
2021/04/19 09:30:26;;;;;;;10.18;8.13;;;;;;;14.51;39.13;94237.25;5013455;28;20032;-78
2021/04/19 09:33:04;;;;;;;9.77;8.25;;;;;;;14.62;39.47;94241.72;5014484;28;20037;-77
2021/04/19 09:35:43;;;;;;;12.70;8.88;;;;;;;14.76;40.01;94237.06;5009581;28;20026;-76
2021/04/19 09:38:13;;;;;;;12.63;10.43;;;;;;;14.86;39.39;94242.53;5038133;28;20026;-78
2021/04/19 09:40:55;;;;;;;12.85;9.75;;;;;;;15.00;39.66;94237.06;4996603;28;20026;-77
2021/04/19 09:43:36;;;;;;;9.88;8.73;;;;;;;15.17;38.96;94243.22;5013186;28;20124;-77
2021/04/19 09:46:09;;;;;;;;;;;;;;;15.37;38.60;94236.78;5013218;28;20117;-77
2021/04/19 09:48:38;;;;;;;10.98;8.75;;;;;;;15.50;36.96;94236.53;5026687;28;19920;-77
2021/04/19 09:51:11;;;;;;;12.85;9.25;;;;;;;15.68;37.75;94240.81;5013242;28;20127;-78
2021/04/19 09:53:37;;;;;;;8.70;6.93;;;;;;;15.80;37.29;94236.34;5011960;28;20022;-77
2021/04/19 09:56:03;;;;;;;7.32;5.95;;;;;;;15.99;36.43;94241.41;5012793;28;20034;-77
2021/04/19 09:58:32;;;;;;;8.38;6.70;;;;;;;16.23;36.02;94236.84;5008374;28;20034;-77
2021/04/19 10:00:59;;;;;;;7.35;5.95;;;;;;;16.43;33.30;94228.53;4991355;28;20034;-77
2021/04/19 10:03:26;;;;;;;6.07;5.03;;;;;;;16.64;33.35;94234.88;5006790;28;20041;-77
2021/04/19 10:05:58;;;;;;;5.10;4.28;;;;;;;16.79;33.26;94227.25;5021104;28;20116;-76
2021/04/19 10:08:23;;;;;;;3.10;2.80;;;;;;;16.97;33.36;94223.56;4993488;28;20037;-76
2021/04/19 10:10:53;;;;;;;3.58;2.95;;;;;;;17.20;31.90;94227.03;4994820;28;20037;-76
2021/04/19 10:13:30;;;;;;;4.03;3.05;;;;;;;17.51;32.27;94224.78;4991604;28;20030;-76
2021/04/19 10:16:06;;;;;;;3.33;2.83;;;;;;;17.76;31.09;94230.34;5011194;28;20029;-78
2021/04/19 10:18:32;;;;;;;3.13;2.47;;;;;;;18.00;29.88;94227.47;5009060;28;20083;-76
2021/04/19 10:20:58;;;;;;;4.70;3.42;;;;;;;18.27;30.04;94222.19;5008792;28;20029;-76
2021/04/19 10:23:30;;;;;;;4.53;3.25;;;;;;;18.50;29.68;94218.41;4993441;28;20048;-76
2021/04/19 10:25:56;;;;;;;3.50;3.20;;;;;;;18.67;29.33;94218.28;4994458;28;20100;-77
2021/04/19 10:28:35;;;;;;;4.00;3.10;;;;;;;18.84;29.05;94218.19;5023255;28;20046;-77
2021/04/19 10:31:13;;;;;;;3.10;2.80;;;;;;;19.00;28.33;94216.44;5007808;28;20037;-77
2021/04/19 10:33:42;;;;;;;3.00;2.70;;;;;;;19.16;28.75;94224.44;5021045;28;20040;-77
2021/04/19 10:36:14;;;;;;;3.20;2.90;;;;;;;19.30;27.59;94217.66;4993459;28;20109;-76
2021/04/19 10:38:40;;;;;;;4.32;3.25;;;;;;;19.40;27.18;94220.34;5024362;28;20068;-77
2021/04/19 10:41:06;;;;;;;8.57;6.72;;;;;;;19.47;29.28;94214.84;5013133;28;20029;-77
2021/04/19 10:43:34;;;;;;;7.30;6.60;;;;;;;19.44;29.09;94210.88;5038165;28;20025;-76
2021/04/19 10:46:00;;;;;;;9.63;7.90;;;;;;;19.48;28.39;94209.31;4991975;28;20089;-78
2021/04/19 10:48:28;;;;;;;8.65;7.22;;;;;;;19.39;28.08;94207.41;5017767;28;20030;-76
2021/04/19 10:50:56;;;;;;;6.93;6.10;;;;;;;19.35;27.99;94204.50;5002466;28;20597;-76
2021/04/19 10:53:34;;;;;;;6.45;5.85;;;;;;;19.29;29.19;94205.53;5002429;28;20040;-77
2021/04/19 10:56:01;;;;;;;5.63;4.95;;;;;;;19.19;28.14;94197.56;4994435;28;20018;-79
2021/04/19 10:58:31;;;;;;;6.90;5.90;;;;;;;19.07;29.50;94190.66;5025850;28;20036;-77
2021/04/19 11:00:57;;;;;;;8.43;6.63;;;;;;;18.98;28.20;94194.81;4993907;28;20030;-76
2021/04/19 11:03:23;;;;;;;6.30;5.65;;;;;;;18.94;28.41;94189.28;4989119;28;20092;-76
2021/04/19 11:05:54;;;;;;;7.00;6.15;;;;;;;18.93;28.09;94184.25;5025608;28;20038;-76
2021/04/19 11:08:48;;;;;;;5.93;5.32;;;;;;;18.94;28.23;94191.09;4992953;28;20066;-76
2021/04/19 11:11:34;;;;;;;4.93;3.90;;;;;;;18.82;28.27;94187.88;5025664;28;20142;-77
2021/04/19 11:14:35;;;;;;;5.40;4.05;;;;;;;18.87;28.93;94185.28;5011967;28;20030;-77
2021/04/19 11:17:04;;;;;;;3.85;3.42;;;;;;;18.89;28.47;94175.28;4998327;28;20030;-77
2021/04/19 11:19:42;;;;;;;3.20;2.83;;;;;;;19.01;28.13;94178.50;5006948;28;20033;-78
2021/04/19 11:22:34;;;;;;;3.30;3.00;;;;;;;19.16;27.63;94183.06;5024540;28;20053;-76
2021/04/19 11:25:23;;;;;;;3.55;3.17;;;;;;;19.40;28.60;94182.63;5006847;28;20030;-77
2021/04/19 11:27:54;;;;;;;3.55;3.15;;;;;;;19.61;27.83;94184.31;4992868;28;20033;-77
2021/04/19 11:30:27;;;;;;;4.07;3.63;;;;;;;19.87;27.11;94182.53;4986941;28;20030;-76
2021/04/19 11:33:05;;;;;;;4.00;3.60;;;;;;;20.15;26.99;94177.84;5006772;28;20040;-76
2021/04/19 11:35:41;;;;;;;3.72;3.38;;;;;;;20.30;26.20;94172.56;5018463;28;20073;-76
2021/04/19 11:38:20;;;;;;;4.10;3.70;;;;;;;20.43;24.23;94175.75;5006880;28;20030;-77
2021/04/19 11:40:49;;;;;;;4.40;3.78;;;;;;;20.44;24.38;94172.81;5025923;28;20125;-77
2021/04/19 11:43:28;;;;;;;5.18;4.25;;;;;;;20.53;24.28;94165.16;5002658;28;20046;-77
2021/04/19 11:46:03;;;;;;;3.40;3.10;;;;;;;20.56;26.07;94167.28;4992297;28;20037;-76
2021/04/19 11:48:32;;;;;;;3.30;3.00;;;;;;;20.66;25.89;94167.28;5018462;28;20040;-77